Provisional Data: Little Pine Creek near Waterville, PA


Please select a monitoring station.
Please select start date.
Please select start date.

Toggle Unit: C/F Toggle Unit: C/F
Sample Time Temperature (C) Temperature (F) Specific Conductivity (mS/cm) pH   Turbidity (NTU+) DO (mg/L)
9/28/2021 1:30:00 PM 14.7 58.46 0.1 6.76 5.25 10.35
9/28/2021 1:45:00 PM 14.74 58.532 0.096 6.76 3.67 10.38
9/28/2021 2:00:00 PM 14.79 58.622 0.096 6.69 3.63 10.4
9/28/2021 2:15:00 PM 14.84 58.712 0.096 6.65 3.62 10.39
9/28/2021 2:30:00 PM 14.87 58.766 0.096 6.58 233.86 10.42
9/28/2021 2:45:00 PM 14.86 58.748 0.096 6.5 3.55 10.4
9/28/2021 3:00:00 PM 14.88 58.784 0.096 6.43 3.51 10.37
9/28/2021 3:15:00 PM 14.89 58.802 0.096 6.47 3.52 10.37
9/28/2021 3:30:00 PM 14.9 58.82 0.096 6.4 3.52 10.38
9/28/2021 3:45:00 PM 14.9 58.82 0.097 6.37 3.52 10.39
9/28/2021 4:00:00 PM 14.91 58.838 0.097 6.37 3.48 10.39
9/28/2021 4:15:00 PM 14.89 58.802 0.096 6.37 3.48 10.37
9/28/2021 4:30:00 PM 14.86 58.748 0.096 6.36 3.6 10.32
9/28/2021 4:45:00 PM 14.87 58.766 0.096 6.35 3.5 10.28
9/28/2021 5:00:00 PM 14.87 58.766 0.096 6.33 3.52 10.26
9/28/2021 5:15:00 PM 14.87 58.766 0.096 6.36 3.54 10.23
9/28/2021 5:30:00 PM 14.85 58.73 0.096 6.34 3.53 10.17
9/28/2021 5:45:00 PM 14.83 58.694 0.096 6.36 3.53 10.12
9/28/2021 6:15:00 PM 14.79 58.622 0.096 6.38 3.46 10.06
9/28/2021 6:30:00 PM 14.77 58.586 0.096 6.39 3.46 10.04
9/28/2021 6:45:00 PM 14.73 58.514 0.096 6.39 3.48 10.03
9/28/2021 7:00:00 PM 14.7 58.46 0.097 6.4 3.53 10.02
9/28/2021 7:15:00 PM 14.66 58.388 0.097 6.42 3.54 10.01
9/28/2021 7:30:00 PM 14.63 58.334 0.098 6.43 3.64 10.01
9/28/2021 7:45:00 PM 14.6 58.28 0.098 6.45 3.71 10.02
9/28/2021 8:00:00 PM 14.58 58.244 0.098 6.47 3.73 10.02
9/28/2021 8:15:00 PM 14.56 58.208 0.099 6.47 3.82 10.02
9/28/2021 8:30:00 PM 14.54 58.172 0.099 6.48 3.88 10.03
9/28/2021 8:45:00 PM 14.52 58.136 0.099 6.5 3.9 10.04
9/28/2021 9:00:00 PM 14.5 58.1 0.1 6.5 3.98 10.05
9/28/2021 9:15:00 PM 14.49 58.082 0.1 6.52 3.91 10.06
9/28/2021 9:30:00 PM 14.47 58.046 0.1 6.54 3.94 10.07
9/28/2021 9:45:00 PM 14.45 58.01 0.1 6.5 3.84 10.08
9/28/2021 10:00:00 PM 14.43 57.974 0.101 6.56 3.88 10.09
9/28/2021 10:15:00 PM 14.41 57.938 0.101 6.58 3.78 10.1
9/28/2021 10:30:00 PM 14.4 57.92 0.101 6.58 3.77 10.11
9/28/2021 10:45:00 PM 14.38 57.884 0.101 6.6 3.73 10.12
9/28/2021 11:00:00 PM 14.37 57.866 0.101 6.61 3.62 10.13
9/28/2021 11:15:00 PM 14.36 57.848 0.101 6.6 3.62 10.13
9/28/2021 11:30:00 PM 14.35 57.83 0.102 6.6 3.64 10.14
9/28/2021 11:45:00 PM 14.34 57.812 0.101 6.62 4.09 10.15
9/29/2021 12:00:00 AM 14.33 57.794 0.102 6.6 3.64 10.15
9/29/2021 12:15:00 AM 14.31 57.758 0.101 6.62 3.59 10.15
9/29/2021 12:30:00 AM 14.31 57.758 0.101 6.63 3.62 10.16
9/29/2021 12:45:00 AM 14.29 57.722 0.102 6.63 3.58 10.16
9/29/2021 1:00:00 AM 14.27 57.686 0.102 6.63 3.61 10.16
9/29/2021 1:15:00 AM 14.25 57.65 0.102 6.65 3.61 10.17
9/29/2021 1:30:00 AM 14.23 57.614 0.101 6.64 3.63 10.17
9/29/2021 1:45:00 AM 14.21 57.578 0.101 6.66 3.85 10.18
9/29/2021 2:00:00 AM 14.19 57.542 0.101 6.66 3.71 10.18
9/29/2021 2:15:00 AM 14.16 57.488 0.101 6.62 3.56 10.19
9/29/2021 2:30:00 AM 14.14 57.452 0.101 6.67 3.57 10.19
9/29/2021 2:45:00 AM 14.11 57.398 0.101 6.66 3.6 10.2
9/29/2021 3:00:00 AM 14.08 57.344 0.1 6.67 3.58 10.2
9/29/2021 3:15:00 AM 14.06 57.308 0.1 6.66 3.57 10.2
9/29/2021 3:30:00 AM 14.03 57.254 0.1 6.66 3.5 10.2
9/29/2021 3:45:00 AM 14.01 57.218 0.1 6.68 3.54 10.21
9/29/2021 4:00:00 AM 13.99 57.182 0.1 6.67 3.5 10.21
9/29/2021 4:15:00 AM 13.97 57.146 0.1 6.68 3.47 10.22
9/29/2021 4:30:00 AM 13.94 57.092 0.1 6.68 3.51 10.22
9/29/2021 4:45:00 AM 13.92 57.056 0.1 6.68 3.52 10.22
9/29/2021 5:00:00 AM 13.9 57.02 0.099 6.69 3.57 10.23
9/29/2021 5:15:00 AM 13.88 56.984 0.099 6.69 3.64 10.23
9/29/2021 5:30:00 AM 13.87 56.966 0.099 6.66 3.64 10.23
9/29/2021 5:45:00 AM 13.86 56.948 0.099 6.7 3.68 10.24
9/29/2021 6:00:00 AM 13.85 56.93 0.099 6.69 3.69 10.24
9/29/2021 6:15:00 AM 13.83 56.894 0.099 6.7 3.87 10.24
9/29/2021 6:30:00 AM 13.83 56.894 0.098 6.7 3.85 10.25
9/29/2021 6:45:00 AM 13.81 56.858 0.098 6.71 3.79 10.25
9/29/2021 7:00:00 AM 13.81 56.858 0.098 6.71 3.9 10.25
9/29/2021 7:15:00 AM 13.8 56.84 0.098 6.71 3.8 10.26
9/29/2021 7:30:00 AM 13.79 56.822 0.098 6.72 3.83 10.27
9/29/2021 7:45:00 AM 13.78 56.804 0.098 6.73 3.76 10.29
9/29/2021 8:00:00 AM 13.76 56.768 0.098 6.73 3.8 10.32
9/29/2021 8:15:00 AM 13.75 56.75 0.096 6.73 4.87 10.34
9/29/2021 8:30:00 AM 13.74 56.732 0.098 6.74 3.88 10.37
9/29/2021 8:45:00 AM 13.73 56.714 0.098 6.74 3.77 10.39
9/29/2021 9:00:00 AM 13.74 56.732 0.098 6.76 3.8 10.43
9/29/2021 9:15:00 AM 13.74 56.732 0.098 6.77 3.76 10.44
9/29/2021 9:30:00 AM 13.73 56.714 0.098 6.77 3.73 10.45
9/29/2021 9:45:00 AM 13.73 56.714 0.098 6.78 3.66 10.46
9/29/2021 10:00:00 AM 13.73 56.714 0.098 6.78 3.64 10.48
9/29/2021 10:15:00 AM 13.76 56.768 0.098 6.79 3.62 10.49
9/29/2021 10:30:00 AM 13.78 56.804 0.098 6.81 3.58 10.51
9/29/2021 10:45:00 AM 13.82 56.876 0.098 6.86 3.49 10.51
9/29/2021 11:00:00 AM 13.87 56.966 0.098 6.87 3.47 10.53
9/29/2021 11:15:00 AM 13.92 57.056 0.098 6.88 3.41 10.56
9/29/2021 11:30:00 AM 13.98 57.164 0.098 6.89 3.4 10.59
9/29/2021 11:45:00 AM 14.04 57.272 0.098 6.89 3.35 10.61
9/29/2021 5:45:00 PM -99999.99 -179968 -99999.99 -99999.99 -99999.99 -99999.99
9/29/2021 6:00:00 PM -99999.99 -179968 -99999.99 -99999.99 -99999.99 -99999.99
9/29/2021 6:15:00 PM -99999.99 -179968 -99999.99 -99999.99 -99999.99 -99999.99
9/29/2021 6:30:00 PM -99999.99 -179968 -99999.99 -99999.99 -99999.99 -99999.99
9/29/2021 6:45:00 PM -99999.99 -179968 -99999.99 -99999.99 -99999.99 -99999.99
9/29/2021 7:00:00 PM -99999.99 -179968 -99999.99 -99999.99 -99999.99 -99999.99
9/29/2021 7:15:00 PM -99999.99 -179968 -99999.99 -99999.99 -99999.99 -99999.99
9/29/2021 7:30:00 PM -99999.99 -179968 -99999.99 -99999.99 -99999.99 -99999.99
9/29/2021 7:45:00 PM -99999.99 -179968 -99999.99 -99999.99 -99999.99 -99999.99
9/29/2021 8:00:00 PM -99999.99 -179968 -99999.99 -99999.99 -99999.99 -99999.99
9/29/2021 8:15:00 PM -99999.99 -179968 -99999.99 -99999.99 -99999.99 -99999.99
9/29/2021 8:30:00 PM -99999.99 -179968 -99999.99 -99999.99 -99999.99 -99999.99
9/29/2021 8:45:00 PM -99999.99 -179968 -99999.99 -99999.99 -99999.99 -99999.99
9/29/2021 9:00:00 PM -99999.99 -179968 -99999.99 -99999.99 -99999.99 -99999.99
9/29/2021 9:15:00 PM -99999.99 -179968 -99999.99 -99999.99 -99999.99 -99999.99
9/29/2021 9:30:00 PM -99999.99 -179968 -99999.99 -99999.99 -99999.99 -99999.99
9/29/2021 9:45:00 PM -99999.99 -179968 -99999.99 -99999.99 -99999.99 -99999.99
9/29/2021 10:00:00 PM -99999.99 -179968 -99999.99 -99999.99 -99999.99 -99999.99
9/29/2021 10:15:00 PM -99999.99 -179968 -99999.99 -99999.99 -99999.99 -99999.99
9/29/2021 10:30:00 PM -99999.99 -179968 -99999.99 -99999.99 -99999.99 -99999.99
9/29/2021 10:45:00 PM -99999.99 -179968 -99999.99 -99999.99 -99999.99 -99999.99
9/29/2021 11:00:00 PM -99999.99 -179968 -99999.99 -99999.99 -99999.99 -99999.99
9/29/2021 11:15:00 PM -99999.99 -179968 -99999.99 -99999.99 -99999.99 -99999.99
9/29/2021 11:30:00 PM -99999.99 -179968 -99999.99 -99999.99 -99999.99 -99999.99
9/29/2021 11:45:00 PM -99999.99 -179968 -99999.99 -99999.99 -99999.99 -99999.99
9/30/2021 12:00:00 AM -99999.99 -179968 -99999.99 -99999.99 -99999.99 -99999.99
9/30/2021 12:15:00 AM -99999.99 -179968 -99999.99 -99999.99 -99999.99 -99999.99
9/30/2021 12:30:00 AM -99999.99 -179968 -99999.99 -99999.99 -99999.99 -99999.99
9/30/2021 12:45:00 AM -99999.99 -179968 -99999.99 -99999.99 -99999.99 -99999.99
9/30/2021 1:00:00 AM -99999.99 -179968 -99999.99 -99999.99 -99999.99 -99999.99
9/30/2021 1:15:00 AM -99999.99 -179968 -99999.99 -99999.99 -99999.99 -99999.99
9/30/2021 1:30:00 AM -99999.99 -179968 -99999.99 -99999.99 -99999.99 -99999.99
9/30/2021 1:45:00 AM -99999.99 -179968 -99999.99 -99999.99 -99999.99 -99999.99
9/30/2021 2:00:00 AM -99999.99 -179968 -99999.99 -99999.99 -99999.99 -99999.99
9/30/2021 2:15:00 AM -99999.99 -179968 -99999.99 -99999.99 -99999.99 -99999.99
9/30/2021 2:30:00 AM -99999.99 -179968 -99999.99 -99999.99 -99999.99 -99999.99
9/30/2021 2:45:00 AM -99999.99 -179968 -99999.99 -99999.99 -99999.99 -99999.99
9/30/2021 3:00:00 AM -99999.99 -179968 -99999.99 -99999.99 -99999.99 -99999.99
9/30/2021 3:15:00 AM -99999.99 -179968 -99999.99 -99999.99 -99999.99 -99999.99
9/30/2021 3:30:00 AM -99999.99 -179968 -99999.99 -99999.99 -99999.99 -99999.99
9/30/2021 3:45:00 AM -99999.99 -179968 -99999.99 -99999.99 -99999.99 -99999.99
9/30/2021 4:00:00 AM -99999.99 -179968 -99999.99 -99999.99 -99999.99 -99999.99
9/30/2021 4:15:00 AM -99999.99 -179968 -99999.99 -99999.99 -99999.99 -99999.99
9/30/2021 4:30:00 AM -99999.99 -179968 -99999.99 -99999.99 -99999.99 -99999.99
9/30/2021 4:45:00 AM -99999.99 -179968 -99999.99 -99999.99 -99999.99 -99999.99
9/30/2021 5:00:00 AM -99999.99 -179968 -99999.99 -99999.99 -99999.99 -99999.99
9/30/2021 5:15:00 AM -99999.99 -179968 -99999.99 -99999.99 -99999.99 -99999.99
9/30/2021 5:30:00 AM -99999.99 -179968 -99999.99 -99999.99 -99999.99 -99999.99
9/30/2021 5:45:00 AM -99999.99 -179968 -99999.99 -99999.99 -99999.99 -99999.99
9/30/2021 6:00:00 AM -99999.99 -179968 -99999.99 -99999.99 -99999.99 -99999.99
9/30/2021 6:15:00 AM -99999.99 -179968 -99999.99 -99999.99 -99999.99 -99999.99
9/30/2021 6:30:00 AM -99999.99 -179968 -99999.99 -99999.99 -99999.99 -99999.99
9/30/2021 6:45:00 AM -99999.99 -179968 -99999.99 -99999.99 -99999.99 -99999.99
9/30/2021 7:00:00 AM -99999.99 -179968 -99999.99 -99999.99 -99999.99 -99999.99
9/30/2021 7:15:00 AM -99999.99 -179968 -99999.99 -99999.99 -99999.99 -99999.99
9/30/2021 7:30:00 AM -99999.99 -179968 -99999.99 -99999.99 -99999.99 -99999.99
9/30/2021 7:45:00 AM -99999.99 -179968 -99999.99 -99999.99 -99999.99 -99999.99
9/30/2021 9:00:00 AM 13.39 56.102 0.102 6.84 2.47 10.49
9/30/2021 9:15:00 AM 13.4 56.12 0.102 6.85 2.45 10.55
9/30/2021 9:30:00 AM 13.42 56.156 0.102 6.85 2.46 10.6
9/30/2021 9:45:00 AM 13.44 56.192 0.102 6.87 2.38 10.65
9/30/2021 10:00:00 AM -99999.99 -179968 -99999.99 -99999.99 -99999.99 -99999.99
9/30/2021 7:30:00 PM -99999.99 -179968 -99999.99 -99999.99 -99999.99 -99999.99
9/30/2021 7:45:00 PM -99999.99 -179968 -99999.99 -99999.99 -99999.99 -99999.99
9/30/2021 8:00:00 PM -99999.99 -179968 -99999.99 -99999.99 -99999.99 -99999.99
9/30/2021 8:15:00 PM -99999.99 -179968 -99999.99 -99999.99 -99999.99 -99999.99
9/30/2021 8:30:00 PM -99999.99 -179968 -99999.99 -99999.99 -99999.99 -99999.99
9/30/2021 8:45:00 PM -99999.99 -179968 -99999.99 -99999.99 -99999.99 -99999.99
9/30/2021 9:00:00 PM -99999.99 -179968 -99999.99 -99999.99 -99999.99 -99999.99
9/30/2021 9:15:00 PM -99999.99 -179968 -99999.99 -99999.99 -99999.99 -99999.99
9/30/2021 9:30:00 PM -99999.99 -179968 -99999.99 -99999.99 -99999.99 -99999.99
9/30/2021 9:45:00 PM -99999.99 -179968 -99999.99 -99999.99 -99999.99 -99999.99
9/30/2021 10:00:00 PM -99999.99 -179968 -99999.99 -99999.99 -99999.99 -99999.99
9/30/2021 10:15:00 PM -99999.99 -179968 -99999.99 -99999.99 -99999.99 -99999.99
9/30/2021 10:30:00 PM -99999.99 -179968 -99999.99 -99999.99 -99999.99 -99999.99
9/30/2021 10:45:00 PM -99999.99 -179968 -99999.99 -99999.99 -99999.99 -99999.99
9/30/2021 11:00:00 PM -99999.99 -179968 -99999.99 -99999.99 -99999.99 -99999.99
9/30/2021 11:15:00 PM -99999.99 -179968 -99999.99 -99999.99 -99999.99 -99999.99
9/30/2021 11:30:00 PM -99999.99 -179968 -99999.99 -99999.99 -99999.99 -99999.99
9/30/2021 11:45:00 PM -99999.99 -179968 -99999.99 -99999.99 -99999.99 -99999.99
10/1/2021 12:00:00 AM -99999.99 -179968 -99999.99 -99999.99 -99999.99 -99999.99
10/1/2021 12:15:00 AM -99999.99 -179968 -99999.99 -99999.99 -99999.99 -99999.99
10/1/2021 12:30:00 AM -99999.99 -179968 -99999.99 -99999.99 -99999.99 -99999.99
10/1/2021 12:45:00 AM -99999.99 -179968 -99999.99 -99999.99 -99999.99 -99999.99
10/1/2021 1:00:00 AM -99999.99 -179968 -99999.99 -99999.99 -99999.99 -99999.99
10/1/2021 1:15:00 AM -99999.99 -179968 -99999.99 -99999.99 -99999.99 -99999.99
10/1/2021 1:30:00 AM -99999.99 -179968 -99999.99 -99999.99 -99999.99 -99999.99
10/1/2021 1:45:00 AM -99999.99 -179968 -99999.99 -99999.99 -99999.99 -99999.99
10/1/2021 2:00:00 AM -99999.99 -179968 -99999.99 -99999.99 -99999.99 -99999.99
10/1/2021 2:15:00 AM -99999.99 -179968 -99999.99 -99999.99 -99999.99 -99999.99
10/1/2021 2:30:00 AM -99999.99 -179968 -99999.99 -99999.99 -99999.99 -99999.99
10/1/2021 2:45:00 AM -99999.99 -179968 -99999.99 -99999.99 -99999.99 -99999.99
10/1/2021 3:00:00 AM -99999.99 -179968 -99999.99 -99999.99 -99999.99 -99999.99
10/1/2021 3:15:00 AM -99999.99 -179968 -99999.99 -99999.99 -99999.99 -99999.99
10/1/2021 3:30:00 AM -99999.99 -179968 -99999.99 -99999.99 -99999.99 -99999.99
10/1/2021 3:45:00 AM -99999.99 -179968 -99999.99 -99999.99 -99999.99 -99999.99
10/1/2021 4:00:00 AM -99999.99 -179968 -99999.99 -99999.99 -99999.99 -99999.99
10/1/2021 4:15:00 AM -99999.99 -179968 -99999.99 -99999.99 -99999.99 -99999.99
10/1/2021 4:30:00 AM -99999.99 -179968 -99999.99 -99999.99 -99999.99 -99999.99
10/1/2021 4:45:00 AM -99999.99 -179968 -99999.99 -99999.99 -99999.99 -99999.99
10/1/2021 5:00:00 AM -99999.99 -179968 -99999.99 -99999.99 -99999.99 -99999.99
10/1/2021 5:15:00 AM -99999.99 -179968 -99999.99 -99999.99 -99999.99 -99999.99
10/1/2021 5:30:00 AM -99999.99 -179968 -99999.99 -99999.99 -99999.99 -99999.99
10/1/2021 5:45:00 AM -99999.99 -179968 -99999.99 -99999.99 -99999.99 -99999.99
10/1/2021 6:00:00 AM -99999.99 -179968 -99999.99 -99999.99 -99999.99 -99999.99
10/1/2021 6:15:00 AM -99999.99 -179968 -99999.99 -99999.99 -99999.99 -99999.99
10/1/2021 6:30:00 AM -99999.99 -179968 -99999.99 -99999.99 -99999.99 -99999.99
10/1/2021 6:45:00 AM -99999.99 -179968 -99999.99 -99999.99 -99999.99 -99999.99
10/1/2021 7:00:00 AM -99999.99 -179968 -99999.99 -99999.99 -99999.99 -99999.99
10/1/2021 7:15:00 AM -99999.99 -179968 -99999.99 -99999.99 -99999.99 -99999.99
10/1/2021 7:30:00 AM -99999.99 -179968 -99999.99 -99999.99 -99999.99 -99999.99
10/1/2021 7:45:00 AM -99999.99 -179968 -99999.99 -99999.99 -99999.99 -99999.99
10/1/2021 8:00:00 AM -99999.99 -179968 -99999.99 -99999.99 -99999.99 -99999.99
10/1/2021 8:15:00 AM -99999.99 -179968 -99999.99 -99999.99 -99999.99 -99999.99
10/1/2021 5:15:00 PM -99999.99 -179968 -99999.99 -99999.99 -99999.99 -99999.99
10/1/2021 6:00:00 PM -99999.99 -179968 -99999.99 -99999.99 -99999.99 -99999.99
10/1/2021 6:15:00 PM -99999.99 -179968 -99999.99 -99999.99 -99999.99 -99999.99
10/1/2021 6:30:00 PM -99999.99 -179968 -99999.99 -99999.99 -99999.99 -99999.99
10/1/2021 6:45:00 PM -99999.99 -179968 -99999.99 -99999.99 -99999.99 -99999.99
10/1/2021 7:00:00 PM -99999.99 -179968 -99999.99 -99999.99 -99999.99 -99999.99
10/1/2021 7:15:00 PM -99999.99 -179968 -99999.99 -99999.99 -99999.99 -99999.99
10/1/2021 7:30:00 PM -99999.99 -179968 -99999.99 -99999.99 -99999.99 -99999.99
10/1/2021 7:45:00 PM -99999.99 -179968 -99999.99 -99999.99 -99999.99 -99999.99
10/1/2021 8:00:00 PM -99999.99 -179968 -99999.99 -99999.99 -99999.99 -99999.99
10/1/2021 8:15:00 PM -99999.99 -179968 -99999.99 -99999.99 -99999.99 -99999.99
10/1/2021 8:30:00 PM -99999.99 -179968 -99999.99 -99999.99 -99999.99 -99999.99
10/1/2021 8:45:00 PM -99999.99 -179968 -99999.99 -99999.99 -99999.99 -99999.99
10/1/2021 9:00:00 PM -99999.99 -179968 -99999.99 -99999.99 -99999.99 -99999.99
10/1/2021 9:15:00 PM -99999.99 -179968 -99999.99 -99999.99 -99999.99 -99999.99
10/1/2021 9:30:00 PM -99999.99 -179968 -99999.99 -99999.99 -99999.99 -99999.99
10/1/2021 9:45:00 PM -99999.99 -179968 -99999.99 -99999.99 -99999.99 -99999.99
10/1/2021 10:00:00 PM -99999.99 -179968 -99999.99 -99999.99 -99999.99 -99999.99
10/1/2021 10:15:00 PM -99999.99 -179968 -99999.99 -99999.99 -99999.99 -99999.99
10/1/2021 10:30:00 PM -99999.99 -179968 -99999.99 -99999.99 -99999.99 -99999.99
10/1/2021 10:45:00 PM -99999.99 -179968 -99999.99 -99999.99 -99999.99 -99999.99
10/1/2021 11:00:00 PM -99999.99 -179968 -99999.99 -99999.99 -99999.99 -99999.99
10/1/2021 11:15:00 PM -99999.99 -179968 -99999.99 -99999.99 -99999.99 -99999.99
10/1/2021 11:30:00 PM -99999.99 -179968 -99999.99 -99999.99 -99999.99 -99999.99
10/1/2021 11:45:00 PM -99999.99 -179968 -99999.99 -99999.99 -99999.99 -99999.99
10/2/2021 12:00:00 AM -99999.99 -179968 -99999.99 -99999.99 -99999.99 -99999.99
10/2/2021 12:15:00 AM -99999.99 -179968 -99999.99 -99999.99 -99999.99 -99999.99
10/2/2021 12:30:00 AM -99999.99 -179968 -99999.99 -99999.99 -99999.99 -99999.99
10/2/2021 12:45:00 AM -99999.99 -179968 -99999.99 -99999.99 -99999.99 -99999.99
10/2/2021 1:00:00 AM -99999.99 -179968 -99999.99 -99999.99 -99999.99 -99999.99
10/2/2021 1:15:00 AM -99999.99 -179968 -99999.99 -99999.99 -99999.99 -99999.99
10/2/2021 1:30:00 AM -99999.99 -179968 -99999.99 -99999.99 -99999.99 -99999.99
10/2/2021 1:45:00 AM -99999.99 -179968 -99999.99 -99999.99 -99999.99 -99999.99
10/2/2021 2:00:00 AM -99999.99 -179968 -99999.99 -99999.99 -99999.99 -99999.99
10/2/2021 2:15:00 AM -99999.99 -179968 -99999.99 -99999.99 -99999.99 -99999.99
10/2/2021 2:30:00 AM -99999.99 -179968 -99999.99 -99999.99 -99999.99 -99999.99
10/2/2021 2:45:00 AM -99999.99 -179968 -99999.99 -99999.99 -99999.99 -99999.99
10/2/2021 3:00:00 AM -99999.99 -179968 -99999.99 -99999.99 -99999.99 -99999.99
10/2/2021 3:15:00 AM -99999.99 -179968 -99999.99 -99999.99 -99999.99 -99999.99
10/2/2021 3:30:00 AM -99999.99 -179968 -99999.99 -99999.99 -99999.99 -99999.99
10/2/2021 3:45:00 AM -99999.99 -179968 -99999.99 -99999.99 -99999.99 -99999.99
10/2/2021 4:00:00 AM -99999.99 -179968 -99999.99 -99999.99 -99999.99 -99999.99
10/2/2021 4:15:00 AM -99999.99 -179968 -99999.99 -99999.99 -99999.99 -99999.99
10/2/2021 4:30:00 AM -99999.99 -179968 -99999.99 -99999.99 -99999.99 -99999.99
10/2/2021 4:45:00 AM -99999.99 -179968 -99999.99 -99999.99 -99999.99 -99999.99
10/2/2021 5:00:00 AM -99999.99 -179968 -99999.99 -99999.99 -99999.99 -99999.99
10/2/2021 5:15:00 AM -99999.99 -179968 -99999.99 -99999.99 -99999.99 -99999.99
10/2/2021 5:30:00 AM -99999.99 -179968 -99999.99 -99999.99 -99999.99 -99999.99
10/2/2021 5:45:00 AM -99999.99 -179968 -99999.99 -99999.99 -99999.99 -99999.99
10/2/2021 6:00:00 AM -99999.99 -179968 -99999.99 -99999.99 -99999.99 -99999.99
10/2/2021 6:15:00 AM -99999.99 -179968 -99999.99 -99999.99 -99999.99 -99999.99
10/2/2021 6:30:00 AM -99999.99 -179968 -99999.99 -99999.99 -99999.99 -99999.99
10/2/2021 6:45:00 AM -99999.99 -179968 -99999.99 -99999.99 -99999.99 -99999.99
10/2/2021 7:00:00 AM -99999.99 -179968 -99999.99 -99999.99 -99999.99 -99999.99
10/2/2021 7:15:00 AM -99999.99 -179968 -99999.99 -99999.99 -99999.99 -99999.99
10/2/2021 7:30:00 AM -99999.99 -179968 -99999.99 -99999.99 -99999.99 -99999.99
10/2/2021 7:45:00 AM -99999.99 -179968 -99999.99 -99999.99 -99999.99 -99999.99
10/2/2021 8:00:00 AM -99999.99 -179968 -99999.99 -99999.99 -99999.99 -99999.99
10/2/2021 6:15:00 PM -99999.99 -179968 -99999.99 -99999.99 -99999.99 -99999.99
10/2/2021 6:30:00 PM -99999.99 -179968 -99999.99 -99999.99 -99999.99 -99999.99
10/2/2021 6:45:00 PM -99999.99 -179968 -99999.99 -99999.99 -99999.99 -99999.99
10/2/2021 7:00:00 PM -99999.99 -179968 -99999.99 -99999.99 -99999.99 -99999.99
10/2/2021 7:15:00 PM -99999.99 -179968 -99999.99 -99999.99 -99999.99 -99999.99
10/2/2021 7:30:00 PM -99999.99 -179968 -99999.99 -99999.99 -99999.99 -99999.99
10/2/2021 7:45:00 PM -99999.99 -179968 -99999.99 -99999.99 -99999.99 -99999.99
10/2/2021 8:00:00 PM -99999.99 -179968 -99999.99 -99999.99 -99999.99 -99999.99
10/2/2021 8:15:00 PM -99999.99 -179968 -99999.99 -99999.99 -99999.99 -99999.99
10/2/2021 8:30:00 PM -99999.99 -179968 -99999.99 -99999.99 -99999.99 -99999.99
10/2/2021 8:45:00 PM -99999.99 -179968 -99999.99 -99999.99 -99999.99 -99999.99
10/2/2021 9:00:00 PM -99999.99 -179968 -99999.99 -99999.99 -99999.99 -99999.99
10/2/2021 9:15:00 PM -99999.99 -179968 -99999.99 -99999.99 -99999.99 -99999.99
10/2/2021 9:30:00 PM -99999.99 -179968 -99999.99 -99999.99 -99999.99 -99999.99
10/2/2021 9:45:00 PM -99999.99 -179968 -99999.99 -99999.99 -99999.99 -99999.99
10/2/2021 10:00:00 PM -99999.99 -179968 -99999.99 -99999.99 -99999.99 -99999.99
10/2/2021 10:15:00 PM -99999.99 -179968 -99999.99 -99999.99 -99999.99 -99999.99
10/2/2021 10:30:00 PM -99999.99 -179968 -99999.99 -99999.99 -99999.99 -99999.99
10/2/2021 10:45:00 PM -99999.99 -179968 -99999.99 -99999.99 -99999.99 -99999.99
10/2/2021 11:00:00 PM -99999.99 -179968 -99999.99 -99999.99 -99999.99 -99999.99
10/2/2021 11:15:00 PM -99999.99 -179968 -99999.99 -99999.99 -99999.99 -99999.99
10/2/2021 11:30:00 PM -99999.99 -179968 -99999.99 -99999.99 -99999.99 -99999.99
10/2/2021 11:45:00 PM -99999.99 -179968 -99999.99 -99999.99 -99999.99 -99999.99
10/3/2021 12:00:00 AM -99999.99 -179968 -99999.99 -99999.99 -99999.99 -99999.99
10/3/2021 12:15:00 AM -99999.99 -179968 -99999.99 -99999.99 -99999.99 -99999.99
10/3/2021 12:30:00 AM -99999.99 -179968 -99999.99 -99999.99 -99999.99 -99999.99
10/3/2021 12:45:00 AM -99999.99 -179968 -99999.99 -99999.99 -99999.99 -99999.99
10/3/2021 1:00:00 AM -99999.99 -179968 -99999.99 -99999.99 -99999.99 -99999.99
10/3/2021 1:15:00 AM -99999.99 -179968 -99999.99 -99999.99 -99999.99 -99999.99
10/3/2021 1:30:00 AM -99999.99 -179968 -99999.99 -99999.99 -99999.99 -99999.99
10/3/2021 1:45:00 AM -99999.99 -179968 -99999.99 -99999.99 -99999.99 -99999.99
10/3/2021 2:00:00 AM -99999.99 -179968 -99999.99 -99999.99 -99999.99 -99999.99
10/3/2021 2:15:00 AM -99999.99 -179968 -99999.99 -99999.99 -99999.99 -99999.99
10/3/2021 2:30:00 AM -99999.99 -179968 -99999.99 -99999.99 -99999.99 -99999.99
10/3/2021 2:45:00 AM -99999.99 -179968 -99999.99 -99999.99 -99999.99 -99999.99
10/3/2021 3:00:00 AM -99999.99 -179968 -99999.99 -99999.99 -99999.99 -99999.99
10/3/2021 3:15:00 AM -99999.99 -179968 -99999.99 -99999.99 -99999.99 -99999.99
10/3/2021 3:30:00 AM -99999.99 -179968 -99999.99 -99999.99 -99999.99 -99999.99
10/3/2021 3:45:00 AM -99999.99 -179968 -99999.99 -99999.99 -99999.99 -99999.99
10/3/2021 4:00:00 AM -99999.99 -179968 -99999.99 -99999.99 -99999.99 -99999.99
10/3/2021 4:15:00 AM -99999.99 -179968 -99999.99 -99999.99 -99999.99 -99999.99
10/3/2021 4:30:00 AM -99999.99 -179968 -99999.99 -99999.99 -99999.99 -99999.99
10/3/2021 4:45:00 AM -99999.99 -179968 -99999.99 -99999.99 -99999.99 -99999.99
10/3/2021 5:00:00 AM -99999.99 -179968 -99999.99 -99999.99 -99999.99 -99999.99
10/3/2021 5:15:00 AM -99999.99 -179968 -99999.99 -99999.99 -99999.99 -99999.99
10/3/2021 5:30:00 AM -99999.99 -179968 -99999.99 -99999.99 -99999.99 -99999.99
10/3/2021 5:45:00 AM -99999.99 -179968 -99999.99 -99999.99 -99999.99 -99999.99
10/3/2021 6:00:00 AM -99999.99 -179968 -99999.99 -99999.99 -99999.99 -99999.99
10/3/2021 6:15:00 AM -99999.99 -179968 -99999.99 -99999.99 -99999.99 -99999.99
10/3/2021 6:30:00 AM -99999.99 -179968 -99999.99 -99999.99 -99999.99 -99999.99
10/3/2021 6:45:00 AM -99999.99 -179968 -99999.99 -99999.99 -99999.99 -99999.99
10/3/2021 7:00:00 AM -99999.99 -179968 -99999.99 -99999.99 -99999.99 -99999.99
10/3/2021 7:15:00 AM -99999.99 -179968 -99999.99 -99999.99 -99999.99 -99999.99
10/3/2021 7:30:00 AM -99999.99 -179968 -99999.99 -99999.99 -99999.99 -99999.99
10/3/2021 7:45:00 AM -99999.99 -179968 -99999.99 -99999.99 -99999.99 -99999.99
10/3/2021 8:00:00 AM -99999.99 -179968 -99999.99 -99999.99 -99999.99 -99999.99
10/3/2021 8:15:00 AM -99999.99 -179968 -99999.99 -99999.99 -99999.99 -99999.99
10/3/2021 8:30:00 AM -99999.99 -179968 -99999.99 -99999.99 -99999.99 -99999.99
10/3/2021 9:00:00 AM -99999.99 -179968 -99999.99 -99999.99 -99999.99 -99999.99
10/3/2021 9:15:00 AM -99999.99 -179968 -99999.99 -99999.99 -99999.99 -99999.99
10/3/2021 10:15:00 AM -99999.99 -179968 -99999.99 -99999.99 -99999.99 -99999.99
10/3/2021 10:30:00 AM -99999.99 -179968 -99999.99 -99999.99 -99999.99 -99999.99
10/3/2021 10:45:00 AM -99999.99 -179968 -99999.99 -99999.99 -99999.99 -99999.99
10/3/2021 1:15:00 PM -99999.99 -179968 -99999.99 -99999.99 -99999.99 -99999.99
10/3/2021 1:30:00 PM -99999.99 -179968 -99999.99 -99999.99 -99999.99 -99999.99
10/3/2021 1:45:00 PM 14.15 57.47 0.123 7.18 1.67 11.16
10/3/2021 2:00:00 PM 14.2 57.56 0.124 7.18 1.75 11.19
10/3/2021 2:15:00 PM 14.23 57.614 0.124 7.19 1.9 11.19
10/3/2021 2:30:00 PM 14.27 57.686 0.124 7.21 1.64 11.18
10/3/2021 2:45:00 PM 14.29 57.722 0.124 7.22 1.71 11.19
10/3/2021 3:00:00 PM 14.28 57.704 0.125 7.2 1.69 11.13
10/3/2021 3:15:00 PM 14.34 57.812 0.125 7.21 1.68 11.14
10/3/2021 3:30:00 PM 14.48 58.064 0.125 7.23 1.67 11.2
10/3/2021 3:45:00 PM 14.4 57.92 0.126 7.21 1.71 11.16
10/3/2021 4:00:00 PM 14.33 57.794 0.126 7.23 1.66 11.11
10/3/2021 4:15:00 PM 14.3 57.74 0.126 7.19 1.66 10.95
10/3/2021 4:30:00 PM 14.27 57.686 0.127 7.12 1.67 10.75
10/3/2021 4:45:00 PM 14.24 57.632 0.127 7.11 1.67 10.72
10/3/2021 5:00:00 PM 14.22 57.596 0.127 7.11 1.67 10.76
10/3/2021 5:15:00 PM 14.17 57.506 0.127 7.09 1.68 10.68
10/3/2021 5:30:00 PM 14.13 57.434 0.127 7.07 1.65 10.61
10/3/2021 5:45:00 PM 14.1 57.38 0.127 7.05 1.68 10.54
10/3/2021 6:00:00 PM 14.07 57.326 0.128 7.03 1.63 10.42
10/3/2021 6:15:00 PM 14.04 57.272 0.128 7 1.66 10.31
10/3/2021 6:30:00 PM 14.01 57.218 0.128 6.98 1.7 10.24
10/3/2021 6:45:00 PM 13.98 57.164 0.128 6.97 1.82 10.18
10/3/2021 7:00:00 PM 13.95 57.11 0.128 6.95 1.87 10.14
10/3/2021 7:15:00 PM 13.91 57.038 0.128 6.94 1.87 10.11
10/3/2021 7:30:00 PM 13.86 56.948 0.128 6.92 1.92 10.08
10/3/2021 7:45:00 PM 13.83 56.894 0.129 6.9 1.93 10.06
10/3/2021 8:00:00 PM 13.79 56.822 0.129 6.91 1.9 10.05
10/3/2021 8:15:00 PM 13.77 56.786 0.129 6.91 1.94 10.05
10/3/2021 8:30:00 PM 13.74 56.732 0.129 6.88 1.95 10.04
10/3/2021 8:45:00 PM 13.71 56.678 0.129 6.89 1.97 10.03
10/3/2021 9:00:00 PM 13.69 56.642 0.129 6.87 2.02 10.03
10/3/2021 9:15:00 PM 13.67 56.606 0.129 6.86 2.06 10.03
10/3/2021 9:30:00 PM 13.65 56.57 0.129 6.88 2.09 10.04
10/3/2021 9:45:00 PM 13.63 56.534 0.129 6.87 2.05 10.04
10/3/2021 10:00:00 PM 13.62 56.516 0.129 6.86 2.04 10.04
10/3/2021 10:15:00 PM 13.6 56.48 0.13 6.87 2.05 10.05
10/3/2021 10:30:00 PM 13.58 56.444 0.13 6.86 2.05 10.05
10/3/2021 10:45:00 PM 13.57 56.426 0.13 6.86 2.04 10.06
10/3/2021 11:00:00 PM 13.56 56.408 0.13 6.85 2.06 10.06
10/3/2021 11:15:00 PM 13.55 56.39 0.13 6.86 2.01 10.06
10/3/2021 11:30:00 PM 13.55 56.39 0.13 6.85 2.04 10.06
10/3/2021 11:45:00 PM 13.54 56.372 0.13 6.84 2 10.06
10/4/2021 12:00:00 AM 13.54 56.372 0.13 6.85 2.08 10.06
10/4/2021 12:15:00 AM 13.54 56.372 0.13 6.82 1.99 10.05
10/4/2021 12:30:00 AM 13.55 56.39 0.13 6.84 2.06 10.06
10/4/2021 12:45:00 AM 13.56 56.408 0.13 6.84 2.06 10.05
10/4/2021 1:00:00 AM 13.56 56.408 0.13 6.84 1.98 10.05
10/4/2021 1:15:00 AM 13.57 56.426 0.13 6.85 2.03 10.05
10/4/2021 1:30:00 AM 13.59 56.462 0.13 6.85 2.01 10.05
10/4/2021 1:45:00 AM 13.61 56.498 0.13 6.83 2 10.04
10/4/2021 2:00:00 AM 13.63 56.534 0.13 6.84 1.99 10.03
10/4/2021 2:15:00 AM 13.66 56.588 0.13 6.84 1.91 10.03
10/4/2021 2:30:00 AM 13.68 56.624 0.13 6.83 1.88 10.02
10/4/2021 2:45:00 AM 13.71 56.678 0.13 6.84 1.95 10.01
10/4/2021 3:00:00 AM 13.73 56.714 0.13 6.84 1.88 10.01
10/4/2021 3:15:00 AM 13.76 56.768 0.13 6.83 1.86 10
10/4/2021 3:30:00 AM 13.78 56.804 0.13 6.84 1.86 10
10/4/2021 3:45:00 AM 13.8 56.84 0.13 6.84 1.87 9.99
10/4/2021 4:00:00 AM 13.82 56.876 0.13 6.84 1.85 9.99
10/4/2021 4:15:00 AM 13.84 56.912 0.13 6.8 1.79 9.98
10/4/2021 4:30:00 AM 13.85 56.93 0.131 6.83 1.83 9.99
10/4/2021 4:45:00 AM 13.86 56.948 0.131 6.83 1.78 9.98
10/4/2021 5:00:00 AM 13.87 56.966 0.131 6.83 1.8 9.98
10/4/2021 5:15:00 AM 13.88 56.984 0.131 6.83 1.78 9.98
10/4/2021 5:30:00 AM 13.88 56.984 0.131 6.83 1.72 9.98
10/4/2021 5:45:00 AM 13.89 57.002 0.131 6.79 1.83 9.98
10/4/2021 6:15:00 AM 13.96 57.128 0.13 6.83 2.35 9.96
10/4/2021 6:30:00 AM 14.04 57.272 0.127 6.83 3.34 9.94
10/4/2021 6:45:00 AM 14.05 57.29 0.127 6.84 4.21 9.92
10/4/2021 7:00:00 AM 14.01 57.218 0.128 6.83 4.95 9.92
10/4/2021 7:15:00 AM 13.99 57.182 0.128 6.82 3.83 9.92
10/4/2021 7:30:00 AM 13.98 57.164 0.128 6.83 3.18 9.93
10/4/2021 7:45:00 AM 13.97 57.146 0.129 6.84 2.53 9.95
10/4/2021 8:00:00 AM 13.97 57.146 0.129 6.84 2.51 9.97
10/4/2021 8:30:00 AM 13.98 57.164 0.128 6.85 2.38 10.05
10/4/2021 8:45:00 AM 13.99 57.182 0.128 6.76 2.34 10.12
10/4/2021 9:00:00 AM 14 57.2 0.128 6.87 2.4 10.18
10/4/2021 9:15:00 AM 14.01 57.218 0.128 6.88 2.42 10.22
10/4/2021 9:30:00 AM 14.02 57.236 0.128 6.89 2.73 10.32
10/4/2021 9:45:00 AM 14.04 57.272 0.128 6.93 2.79 10.43
10/4/2021 10:00:00 AM 14.07 57.326 0.129 6.95 2.8 10.52
10/4/2021 10:15:00 AM 14.09 57.362 0.129 6.96 2.56 10.6
10/4/2021 10:30:00 AM 14.1 57.38 0.129 6.97 2.32 10.64
10/4/2021 10:45:00 AM 14.12 57.416 0.129 6.98 2.34 10.69
10/4/2021 11:00:00 AM 14.15 57.47 0.129 6.99 2.43 10.77
10/4/2021 11:15:00 AM 14.18 57.524 0.129 7.02 2.26 10.81
10/4/2021 11:30:00 AM 14.21 57.578 0.129 7.04 2.08 10.89
10/4/2021 11:45:00 AM 14.28 57.704 0.129 7.07 2.08 10.98
10/4/2021 12:00:00 PM 14.36 57.848 0.129 7.09 2.08 11.05
10/4/2021 12:30:00 PM -99999.99 -179968 -99999.99 -99999.99 -99999.99 -99999.99
10/4/2021 12:45:00 PM -99999.99 -179968 -99999.99 -99999.99 -99999.99 -99999.99
10/4/2021 1:00:00 PM -99999.99 -179968 -99999.99 -99999.99 -99999.99 -99999.99
10/4/2021 1:15:00 PM -99999.99 -179968 -99999.99 -99999.99 -99999.99 -99999.99
10/4/2021 1:30:00 PM -99999.99 -179968 -99999.99 -99999.99 -99999.99 -99999.99
10/4/2021 1:45:00 PM -99999.99 -179968 -99999.99 -99999.99 -99999.99 -99999.99
10/4/2021 2:00:00 PM -99999.99 -179968 -99999.99 -99999.99 -99999.99 -99999.99
10/4/2021 2:15:00 PM -99999.99 -179968 -99999.99 -99999.99 -99999.99 -99999.99
10/4/2021 2:30:00 PM -99999.99 -179968 -99999.99 -99999.99 -99999.99 -99999.99
10/4/2021 2:45:00 PM -99999.99 -179968 -99999.99 -99999.99 -99999.99 -99999.99
10/4/2021 3:00:00 PM 14.89 58.802 0.131 7.22 2.23 11.03
10/4/2021 3:15:00 PM 14.98 58.964 0.131 7.25 2.33 11.04
10/4/2021 3:30:00 PM 15.11 59.198 0.131 7.26 2.16 11.07
10/4/2021 3:45:00 PM 14.95 58.91 0.132 7.22 2.18 10.94
10/4/2021 4:15:00 PM -99999.99 -179968 -99999.99 -99999.99 -99999.99 -99999.99
10/4/2021 4:30:00 PM -99999.99 -179968 -99999.99 -99999.99 -99999.99 -99999.99
10/4/2021 4:45:00 PM -99999.99 -179968 -99999.99 -99999.99 -99999.99 -99999.99
10/4/2021 5:00:00 PM -99999.99 -179968 -99999.99 -99999.99 -99999.99 -99999.99
10/4/2021 5:15:00 PM -99999.99 -179968 -99999.99 -99999.99 -99999.99 -99999.99
10/4/2021 5:30:00 PM -99999.99 -179968 -99999.99 -99999.99 -99999.99 -99999.99
10/4/2021 5:45:00 PM -99999.99 -179968 -99999.99 -99999.99 -99999.99 -99999.99
10/4/2021 6:00:00 PM -99999.99 -179968 -99999.99 -99999.99 -99999.99 -99999.99
10/4/2021 6:15:00 PM -99999.99 -179968 -99999.99 -99999.99 -99999.99 -99999.99
10/4/2021 6:30:00 PM -99999.99 -179968 -99999.99 -99999.99 -99999.99 -99999.99
10/4/2021 6:45:00 PM -99999.99 -179968 -99999.99 -99999.99 -99999.99 -99999.99
10/4/2021 7:00:00 PM -99999.99 -179968 -99999.99 -99999.99 -99999.99 -99999.99
10/4/2021 7:15:00 PM -99999.99 -179968 -99999.99 -99999.99 -99999.99 -99999.99
10/4/2021 7:30:00 PM -99999.99 -179968 -99999.99 -99999.99 -99999.99 -99999.99
10/4/2021 7:45:00 PM -99999.99 -179968 -99999.99 -99999.99 -99999.99 -99999.99
10/4/2021 8:00:00 PM -99999.99 -179968 -99999.99 -99999.99 -99999.99 -99999.99
10/4/2021 8:15:00 PM -99999.99 -179968 -99999.99 -99999.99 -99999.99 -99999.99
10/4/2021 8:30:00 PM -99999.99 -179968 -99999.99 -99999.99 -99999.99 -99999.99
10/4/2021 8:45:00 PM -99999.99 -179968 -99999.99 -99999.99 -99999.99 -99999.99
10/4/2021 9:00:00 PM -99999.99 -179968 -99999.99 -99999.99 -99999.99 -99999.99
10/4/2021 9:15:00 PM -99999.99 -179968 -99999.99 -99999.99 -99999.99 -99999.99
10/4/2021 9:30:00 PM -99999.99 -179968 -99999.99 -99999.99 -99999.99 -99999.99
10/4/2021 9:45:00 PM -99999.99 -179968 -99999.99 -99999.99 -99999.99 -99999.99
10/4/2021 10:00:00 PM -99999.99 -179968 -99999.99 -99999.99 -99999.99 -99999.99
10/4/2021 10:15:00 PM -99999.99 -179968 -99999.99 -99999.99 -99999.99 -99999.99
10/4/2021 10:30:00 PM -99999.99 -179968 -99999.99 -99999.99 -99999.99 -99999.99
10/4/2021 10:45:00 PM -99999.99 -179968 -99999.99 -99999.99 -99999.99 -99999.99
10/4/2021 11:00:00 PM -99999.99 -179968 -99999.99 -99999.99 -99999.99 -99999.99
10/4/2021 11:15:00 PM -99999.99 -179968 -99999.99 -99999.99 -99999.99 -99999.99
10/4/2021 11:30:00 PM -99999.99 -179968 -99999.99 -99999.99 -99999.99 -99999.99
10/4/2021 11:45:00 PM -99999.99 -179968 -99999.99 -99999.99 -99999.99 -99999.99
10/5/2021 12:00:00 AM -99999.99 -179968 -99999.99 -99999.99 -99999.99 -99999.99
10/5/2021 12:15:00 AM -99999.99 -179968 -99999.99 -99999.99 -99999.99 -99999.99
10/5/2021 12:30:00 AM -99999.99 -179968 -99999.99 -99999.99 -99999.99 -99999.99
10/5/2021 12:45:00 AM -99999.99 -179968 -99999.99 -99999.99 -99999.99 -99999.99
10/5/2021 1:00:00 AM -99999.99 -179968 -99999.99 -99999.99 -99999.99 -99999.99
10/5/2021 1:15:00 AM -99999.99 -179968 -99999.99 -99999.99 -99999.99 -99999.99
10/5/2021 1:30:00 AM -99999.99 -179968 -99999.99 -99999.99 -99999.99 -99999.99
10/5/2021 1:45:00 AM -99999.99 -179968 -99999.99 -99999.99 -99999.99 -99999.99
10/5/2021 2:00:00 AM -99999.99 -179968 -99999.99 -99999.99 -99999.99 -99999.99
10/5/2021 2:15:00 AM -99999.99 -179968 -99999.99 -99999.99 -99999.99 -99999.99
10/5/2021 2:30:00 AM -99999.99 -179968 -99999.99 -99999.99 -99999.99 -99999.99
10/5/2021 2:45:00 AM -99999.99 -179968 -99999.99 -99999.99 -99999.99 -99999.99
10/5/2021 3:00:00 AM -99999.99 -179968 -99999.99 -99999.99 -99999.99 -99999.99
10/5/2021 3:15:00 AM -99999.99 -179968 -99999.99 -99999.99 -99999.99 -99999.99
10/5/2021 3:30:00 AM -99999.99 -179968 -99999.99 -99999.99 -99999.99 -99999.99
10/5/2021 3:45:00 AM -99999.99 -179968 -99999.99 -99999.99 -99999.99 -99999.99
10/5/2021 4:00:00 AM -99999.99 -179968 -99999.99 -99999.99 -99999.99 -99999.99
10/5/2021 4:15:00 AM -99999.99 -179968 -99999.99 -99999.99 -99999.99 -99999.99
10/5/2021 4:30:00 AM -99999.99 -179968 -99999.99 -99999.99 -99999.99 -99999.99
10/5/2021 4:45:00 AM -99999.99 -179968 -99999.99 -99999.99 -99999.99 -99999.99
10/5/2021 5:00:00 AM -99999.99 -179968 -99999.99 -99999.99 -99999.99 -99999.99
10/5/2021 5:15:00 AM -99999.99 -179968 -99999.99 -99999.99 -99999.99 -99999.99
10/5/2021 5:30:00 AM -99999.99 -179968 -99999.99 -99999.99 -99999.99 -99999.99
10/5/2021 5:45:00 AM -99999.99 -179968 -99999.99 -99999.99 -99999.99 -99999.99
10/5/2021 6:00:00 AM -99999.99 -179968 -99999.99 -99999.99 -99999.99 -99999.99
10/5/2021 6:15:00 AM -99999.99 -179968 -99999.99 -99999.99 -99999.99 -99999.99
10/5/2021 6:30:00 AM -99999.99 -179968 -99999.99 -99999.99 -99999.99 -99999.99
10/5/2021 6:45:00 AM -99999.99 -179968 -99999.99 -99999.99 -99999.99 -99999.99
10/5/2021 7:00:00 AM -99999.99 -179968 -99999.99 -99999.99 -99999.99 -99999.99
10/5/2021 7:15:00 AM -99999.99 -179968 -99999.99 -99999.99 -99999.99 -99999.99
10/5/2021 7:30:00 AM -99999.99 -179968 -99999.99 -99999.99 -99999.99 -99999.99
10/5/2021 7:45:00 AM -99999.99 -179968 -99999.99 -99999.99 -99999.99 -99999.99
10/5/2021 8:00:00 AM -99999.99 -179968 -99999.99 -99999.99 -99999.99 -99999.99
10/5/2021 8:15:00 AM -99999.99 -179968 -99999.99 -99999.99 -99999.99 -99999.99
10/5/2021 8:30:00 AM -99999.99 -179968 -99999.99 -99999.99 -99999.99 -99999.99
10/5/2021 8:45:00 AM -99999.99 -179968 -99999.99 -99999.99 -99999.99 -99999.99
10/5/2021 9:15:00 AM 14.94 58.892 0.126 6.89 2.93 10.23
10/5/2021 9:30:00 AM 14.97 58.946 0.126 6.89 2.88 10.37
10/5/2021 9:45:00 AM 15.05 59.09 0.126 6.94 2.98 10.51
10/5/2021 10:15:00 AM -99999.99 -179968 -99999.99 -99999.99 -99999.99 -99999.99
10/5/2021 10:30:00 AM -99999.99 -179968 -99999.99 -99999.99 -99999.99 -99999.99
10/5/2021 10:45:00 AM -99999.99 -179968 -99999.99 -99999.99 -99999.99 -99999.99
10/5/2021 11:00:00 AM -99999.99 -179968 -99999.99 -99999.99 -99999.99 -99999.99
10/5/2021 11:15:00 AM -99999.99 -179968 -99999.99 -99999.99 -99999.99 -99999.99
10/5/2021 11:30:00 AM -99999.99 -179968 -99999.99 -99999.99 -99999.99 -99999.99
10/5/2021 11:45:00 AM -99999.99 -179968 -99999.99 -99999.99 -99999.99 -99999.99
10/5/2021 12:00:00 PM -99999.99 -179968 -99999.99 -99999.99 -99999.99 -99999.99
10/5/2021 12:15:00 PM -99999.99 -179968 -99999.99 -99999.99 -99999.99 -99999.99
10/5/2021 12:30:00 PM -99999.99 -179968 -99999.99 -99999.99 -99999.99 -99999.99
10/5/2021 12:45:00 PM -99999.99 -179968 -99999.99 -99999.99 -99999.99 -99999.99
10/5/2021 1:00:00 PM -99999.99 -179968 -99999.99 -99999.99 -99999.99 -99999.99
10/5/2021 1:15:00 PM -99999.99 -179968 -99999.99 -99999.99 -99999.99 -99999.99
10/5/2021 1:30:00 PM -99999.99 -179968 -99999.99 -99999.99 -99999.99 -99999.99
10/5/2021 1:45:00 PM -99999.99 -179968 -99999.99 -99999.99 -99999.99 -99999.99
10/5/2021 2:00:00 PM -99999.99 -179968 -99999.99 -99999.99 -99999.99 -99999.99
10/5/2021 2:15:00 PM -99999.99 -179968 -99999.99 -99999.99 -99999.99 -99999.99
10/5/2021 2:30:00 PM -99999.99 -179968 -99999.99 -99999.99 -99999.99 -99999.99
10/5/2021 2:45:00 PM -99999.99 -179968 -99999.99 -99999.99 -99999.99 -99999.99
10/5/2021 3:00:00 PM -99999.99 -179968 -99999.99 -99999.99 -99999.99 -99999.99
10/5/2021 3:15:00 PM -99999.99 -179968 -99999.99 -99999.99 -99999.99 -99999.99
10/5/2021 3:30:00 PM -99999.99 -179968 -99999.99 -99999.99 -99999.99 -99999.99
10/5/2021 3:45:00 PM -99999.99 -179968 -99999.99 -99999.99 -99999.99 -99999.99
10/5/2021 4:00:00 PM -99999.99 -179968 -99999.99 -99999.99 -99999.99 -99999.99
10/5/2021 4:15:00 PM -99999.99 -179968 -99999.99 -99999.99 -99999.99 -99999.99
10/5/2021 4:30:00 PM -99999.99 -179968 -99999.99 -99999.99 -99999.99 -99999.99
10/5/2021 5:00:00 PM 15.57 60.026 0.12 7.07 2.45 10.36
10/5/2021 5:15:00 PM 15.52 59.936 0.119 7.05 2.39 10.3
10/5/2021 5:30:00 PM 15.5 59.9 0.119 7.04 2.4 10.26
10/5/2021 5:45:00 PM 15.5 59.9 0.119 7.01 2.29 10.26
10/5/2021 6:15:00 PM -99999.99 -179968 -99999.99 -99999.99 -99999.99 -99999.99
10/5/2021 6:30:00 PM -99999.99 -179968 -99999.99 -99999.99 -99999.99 -99999.99
10/5/2021 6:45:00 PM -99999.99 -179968 -99999.99 -99999.99 -99999.99 -99999.99
10/5/2021 7:00:00 PM -99999.99 -179968 -99999.99 -99999.99 -99999.99 -99999.99
10/5/2021 7:15:00 PM -99999.99 -179968 -99999.99 -99999.99 -99999.99 -99999.99
10/5/2021 7:30:00 PM -99999.99 -179968 -99999.99 -99999.99 -99999.99 -99999.99
10/5/2021 7:45:00 PM -99999.99 -179968 -99999.99 -99999.99 -99999.99 -99999.99
10/5/2021 8:00:00 PM -99999.99 -179968 -99999.99 -99999.99 -99999.99 -99999.99
10/5/2021 8:15:00 PM -99999.99 -179968 -99999.99 -99999.99 -99999.99 -99999.99
10/5/2021 8:30:00 PM -99999.99 -179968 -99999.99 -99999.99 -99999.99 -99999.99
10/5/2021 8:45:00 PM -99999.99 -179968 -99999.99 -99999.99 -99999.99 -99999.99
10/5/2021 9:00:00 PM -99999.99 -179968 -99999.99 -99999.99 -99999.99 -99999.99
10/5/2021 9:15:00 PM -99999.99 -179968 -99999.99 -99999.99 -99999.99 -99999.99
10/5/2021 9:30:00 PM -99999.99 -179968 -99999.99 -99999.99 -99999.99 -99999.99
10/5/2021 9:45:00 PM -99999.99 -179968 -99999.99 -99999.99 -99999.99 -99999.99
10/5/2021 10:00:00 PM -99999.99 -179968 -99999.99 -99999.99 -99999.99 -99999.99
10/5/2021 10:15:00 PM -99999.99 -179968 -99999.99 -99999.99 -99999.99 -99999.99
10/5/2021 10:30:00 PM -99999.99 -179968 -99999.99 -99999.99 -99999.99 -99999.99
10/5/2021 10:45:00 PM -99999.99 -179968 -99999.99 -99999.99 -99999.99 -99999.99
10/5/2021 11:00:00 PM -99999.99 -179968 -99999.99 -99999.99 -99999.99 -99999.99
10/5/2021 11:15:00 PM -99999.99 -179968 -99999.99 -99999.99 -99999.99 -99999.99
10/5/2021 11:30:00 PM -99999.99 -179968 -99999.99 -99999.99 -99999.99 -99999.99
10/5/2021 11:45:00 PM -99999.99 -179968 -99999.99 -99999.99 -99999.99 -99999.99
10/6/2021 12:00:00 AM -99999.99 -179968 -99999.99 -99999.99 -99999.99 -99999.99
10/6/2021 12:15:00 AM -99999.99 -179968 -99999.99 -99999.99 -99999.99 -99999.99
10/6/2021 12:30:00 AM -99999.99 -179968 -99999.99 -99999.99 -99999.99 -99999.99
10/6/2021 12:45:00 AM -99999.99 -179968 -99999.99 -99999.99 -99999.99 -99999.99
10/6/2021 1:00:00 AM -99999.99 -179968 -99999.99 -99999.99 -99999.99 -99999.99
10/6/2021 1:15:00 AM -99999.99 -179968 -99999.99 -99999.99 -99999.99 -99999.99
10/6/2021 1:30:00 AM -99999.99 -179968 -99999.99 -99999.99 -99999.99 -99999.99
10/6/2021 1:45:00 AM -99999.99 -179968 -99999.99 -99999.99 -99999.99 -99999.99
10/6/2021 2:00:00 AM -99999.99 -179968 -99999.99 -99999.99 -99999.99 -99999.99
10/6/2021 2:15:00 AM -99999.99 -179968 -99999.99 -99999.99 -99999.99 -99999.99
10/6/2021 2:30:00 AM -99999.99 -179968 -99999.99 -99999.99 -99999.99 -99999.99
10/6/2021 2:45:00 AM -99999.99 -179968 -99999.99 -99999.99 -99999.99 -99999.99
10/6/2021 3:00:00 AM -99999.99 -179968 -99999.99 -99999.99 -99999.99 -99999.99
10/6/2021 3:15:00 AM 15.94 60.692 0.12 6.86 2.94 9.71
10/6/2021 3:30:00 AM 15.93 60.674 0.12 6.85 2.91 9.71
10/6/2021 3:45:00 AM 15.93 60.674 0.12 6.86 2.86 9.71
10/6/2021 4:15:00 AM -99999.99 -179968 -99999.99 -99999.99 -99999.99 -99999.99
10/6/2021 4:30:00 AM -99999.99 -179968 -99999.99 -99999.99 -99999.99 -99999.99
10/6/2021 4:45:00 AM -99999.99 -179968 -99999.99 -99999.99 -99999.99 -99999.99
10/6/2021 5:00:00 AM -99999.99 -179968 -99999.99 -99999.99 -99999.99 -99999.99
10/6/2021 5:15:00 AM -99999.99 -179968 -99999.99 -99999.99 -99999.99 -99999.99
10/6/2021 5:30:00 AM -99999.99 -179968 -99999.99 -99999.99 -99999.99 -99999.99
10/6/2021 5:45:00 AM -99999.99 -179968 -99999.99 -99999.99 -99999.99 -99999.99
10/6/2021 6:00:00 AM -99999.99 -179968 -99999.99 -99999.99 -99999.99 -99999.99
10/6/2021 6:15:00 AM -99999.99 -179968 -99999.99 -99999.99 -99999.99 -99999.99
10/6/2021 6:30:00 AM -99999.99 -179968 -99999.99 -99999.99 -99999.99 -99999.99
10/6/2021 6:45:00 AM -99999.99 -179968 -99999.99 -99999.99 -99999.99 -99999.99
10/6/2021 7:00:00 AM -99999.99 -179968 -99999.99 -99999.99 -99999.99 -99999.99
10/6/2021 7:15:00 AM -99999.99 -179968 -99999.99 -99999.99 -99999.99 -99999.99
10/6/2021 7:30:00 AM -99999.99 -179968 -99999.99 -99999.99 -99999.99 -99999.99
10/6/2021 7:45:00 AM -99999.99 -179968 -99999.99 -99999.99 -99999.99 -99999.99
10/6/2021 8:00:00 AM -99999.99 -179968 -99999.99 -99999.99 -99999.99 -99999.99
10/6/2021 8:15:00 AM -99999.99 -179968 -99999.99 -99999.99 -99999.99 -99999.99
10/6/2021 8:30:00 AM 15.8 60.44 0.12 6.88 3.31 9.96
10/6/2021 8:45:00 AM 15.81 60.458 0.119 6.89 3.99 10.03
10/6/2021 9:00:00 AM 15.82 60.476 0.119 6.9 3.49 10.12
10/6/2021 9:15:00 AM 15.83 60.494 0.119 6.93 3.76 10.19
10/6/2021 10:00:00 AM -99999.99 -179968 -99999.99 -99999.99 -99999.99 -99999.99
10/6/2021 10:15:00 AM -99999.99 -179968 -99999.99 -99999.99 -99999.99 -99999.99
10/6/2021 10:30:00 AM -99999.99 -179968 -99999.99 -99999.99 -99999.99 -99999.99
10/6/2021 10:45:00 AM -99999.99 -179968 -99999.99 -99999.99 -99999.99 -99999.99
10/6/2021 11:00:00 AM -99999.99 -179968 -99999.99 -99999.99 -99999.99 -99999.99
10/6/2021 11:15:00 AM -99999.99 -179968 -99999.99 -99999.99 -99999.99 -99999.99
10/6/2021 11:30:00 AM -99999.99 -179968 -99999.99 -99999.99 -99999.99 -99999.99
10/6/2021 11:45:00 AM -99999.99 -179968 -99999.99 -99999.99 -99999.99 -99999.99
10/6/2021 12:00:00 PM -99999.99 -179968 -99999.99 -99999.99 -99999.99 -99999.99
10/6/2021 12:15:00 PM -99999.99 -179968 -99999.99 -99999.99 -99999.99 -99999.99
10/6/2021 12:30:00 PM -99999.99 -179968 -99999.99 -99999.99 -99999.99 -99999.99
10/6/2021 12:45:00 PM -99999.99 -179968 -99999.99 -99999.99 -99999.99 -99999.99
10/6/2021 1:00:00 PM -99999.99 -179968 -99999.99 -99999.99 -99999.99 -99999.99
10/6/2021 1:15:00 PM -99999.99 -179968 -99999.99 -99999.99 -99999.99 -99999.99
10/6/2021 1:30:00 PM -99999.99 -179968 -99999.99 -99999.99 -99999.99 -99999.99
10/6/2021 1:45:00 PM -99999.99 -179968 -99999.99 -99999.99 -99999.99 -99999.99
10/6/2021 2:00:00 PM -99999.99 -179968 -99999.99 -99999.99 -99999.99 -99999.99
10/6/2021 2:15:00 PM -99999.99 -179968 -99999.99 -99999.99 -99999.99 -99999.99
10/6/2021 2:30:00 PM 16.28 61.304 0.118 7.3 2.32 10.89
10/6/2021 2:45:00 PM 16.29 61.322 0.117 7.3 3.21 10.9
10/6/2021 3:00:00 PM 16.29 61.322 0.117 7.33 3.18 10.92
10/6/2021 3:15:00 PM 16.3 61.34 0.117 7.32 3.1 10.93
10/6/2021 3:30:00 PM 16.29 61.322 0.117 7.34 2.99 10.93
10/6/2021 3:45:00 PM -99999.99 -179968 -99999.99 -99999.99 -99999.99 -99999.99
10/6/2021 4:00:00 PM -99999.99 -179968 -99999.99 -99999.99 -99999.99 -99999.99
10/6/2021 4:15:00 PM 16.26 61.268 0.117 7.32 3.08 10.87
10/6/2021 4:30:00 PM 16.27 61.286 0.117 7.32 2.97 10.85
10/6/2021 4:45:00 PM 16.25 61.25 0.116 7.29 3.03 10.8
10/6/2021 5:00:00 PM 16.22 61.196 0.116 7.27 3.14 10.71
10/6/2021 5:15:00 PM 16.18 61.124 0.116 7.23 3.21 10.59
10/6/2021 5:30:00 PM 16.14 61.052 0.116 7.19 3.14 10.5
10/6/2021 5:45:00 PM 16.11 60.998 0.116 7.15 3.13 10.36
10/6/2021 6:15:00 PM -99999.99 -179968 -99999.99 -99999.99 -99999.99 -99999.99

These are provisional data and have not been subject to a quality assurance process, but rather are the raw data reported by the instrument.
H: value is above sensor operating range
L: value is below sensor operating range
Offline: station is not reporting data
NC: parameter is not collected at site

Data Availability & Limitations

Uncertainty and potential for error can be associated with environmental monitoring data. Provisional data have not been subject to a quality assurance process, but rather are the raw data reported by the instrument. Data users are cautioned to consider carefully the provisional nature of the information before using it for decisions that concern personal or public safety or the conduct of business that involves substantial monetary or operational consequences.

Approved data are currently available by request by emailing: srbc@srbc.net. Approved data have been subject to a quality assurance process to correct for equipment or fouling drift. Data recorded during equipment malfunctions have been removed.

View Historical Stations that have been discontinued.